Medowie, Australia
Current Conditions -  °F | °C
As of 10:00 AM on Wednesday 28 Jan 2015 (Local Time) from YWLM Reporting Station
Light Rain Light Rain  
Wind Chill: 64°   Ceiling: 800
Heat Index: 64°   Visibility: 4mi
Dew Point: 63°   Wind: 12mph
Humidity: 94%   Direction: 190°S
Pressure: 29.88"   Gusts: NA
Location:  32.74°S, 151.86°E
Report Text: YWLM 272300Z 19010KT 7000 -RA BKN008 BKN025 BKN050 18/17 Q1012
Loading
Personal Weather Stations






























Interactive Weather Map New forecast layout! Learn more

10-Day Weather Forecast

Advertisements
Track Severe Weather on mobile